Time;durP1;ratioP1;P1;durP2;ratioP2;P2;SDS_P1;SDS_P2;PMS_P1;PMS_P2;Temp;Humidity;BMP_temperature;BMP_pressure;BME280_temperature;BME280_humidity;BME280_pressure;Samples;Min_cycle;Max_cycle;Signal;HPM_P1;HPM_P2
2022/12/07 00:04:51;;;;;;;20.58;16.23;;;;;;;11.81;85.78;100340.69;10342827;28;97043;-84
2022/12/07 00:09:56;;;;;;;23.00;18.05;;;;;;;11.72;86.14;100334.03;10342902;28;96800;-84
2022/12/07 00:15:05;;;;;;;27.58;19.30;;;;;;;11.64;85.91;100336.16;10341697;28;96749;-84
2022/12/07 00:20:12;;;;;;;28.33;19.80;;;;;;;11.53;85.93;100338.38;10341367;28;97808;-84
2022/12/07 00:25:16;;;;;;;29.05;20.70;;;;;;;11.46;87.06;100334.28;10341052;28;96725;-84
2022/12/07 00:30:26;;;;;;;32.92;21.65;;;;;;;11.44;86.17;100328.25;10341601;28;97017;-84
2022/12/07 00:35:31;;;;;;;30.63;21.13;;;;;;;11.36;86.37;100320.66;10341237;28;96669;-84
2022/12/07 00:40:34;;;;;;;32.83;22.43;;;;;;;11.29;87.39;100306.00;10341092;28;96861;-84
2022/12/07 00:45:45;;;;;;;29.67;19.55;;;;;;;11.34;87.09;100319.84;10341601;28;96663;-84
2022/12/07 00:50:50;;;;;;;29.30;20.08;;;;;;;11.36;87.26;100314.50;10340562;28;96778;-84
2022/12/07 00:55:55;;;;;;;25.55;18.60;;;;;;;11.47;86.53;100312.28;10341134;28;96722;-84
2022/12/07 01:01:06;;;;;;;23.92;17.58;;;;;;;11.45;87.03;100303.59;10341188;28;96727;-84
2022/12/07 01:06:10;;;;;;;27.30;17.48;;;;;;;11.50;87.02;100304.25;10340396;28;96686;-84
2022/12/07 01:11:17;;;;;;;25.27;18.33;;;;;;;11.54;86.60;100302.34;10338805;28;96757;-84
2022/12/07 01:16:28;;;;;;;28.42;18.13;;;;;;;11.64;86.38;100290.47;10339166;28;96751;-83
2022/12/07 01:21:37;;;;;;;25.40;17.65;;;;;;;11.65;86.03;100286.94;10339979;28;97271;-84
2022/12/07 01:26:41;;;;;;;25.25;17.88;;;;;;;11.63;86.25;100280.88;10339577;28;96676;-84
2022/12/07 01:31:50;;;;;;;26.08;18.75;;;;;;;11.57;86.99;100274.09;10339446;28;97006;-84
2022/12/07 01:36:56;;;;;;;28.15;19.15;;;;;;;11.63;86.82;100268.53;10340181;28;97049;-84
2022/12/07 01:42:01;;;;;;;27.70;18.67;;;;;;;11.63;86.62;100267.69;10339549;28;96953;-84
2022/12/07 01:47:06;;;;;;;23.65;18.10;;;;;;;11.66;86.10;100273.69;10338957;28;96675;-84
2022/12/07 01:52:17;;;;;;;24.58;17.85;;;;;;;11.71;85.97;100268.19;10339977;28;96793;-83
2022/12/07 01:57:23;;;;;;;25.95;18.50;;;;;;;11.80;86.33;100273.94;10338934;28;96847;-84
2022/12/07 02:02:34;;;;;;;26.73;18.90;;;;;;;11.72;86.80;100256.75;10338152;28;96715;-84
2022/12/07 02:07:40;;;;;;;24.58;18.58;;;;;;;11.77;86.35;100260.03;10338419;28;96746;-84
2022/12/07 02:12:49;;;;;;;26.67;19.63;;;;;;;11.73;86.22;100261.94;10338770;28;96780;-84
2022/12/07 02:18:05;;;;;;;25.00;18.00;;;;;;;11.79;85.82;100259.03;10338059;28;96851;-84
2022/12/07 02:23:43;;;;;;;24.60;19.17;;;;;;;11.77;86.57;100260.88;10338757;28;96887;-84
2022/12/07 02:29:11;;;;;;;23.48;17.60;;;;;;;11.76;85.94;100260.94;10367964;28;96679;-84
2022/12/07 02:34:24;;;;;;;24.08;17.73;;;;;;;11.78;85.93;100248.56;10378881;28;96687;-84
2022/12/07 02:39:39;;;;;;;23.87;17.97;;;;;;;11.85;85.88;100245.59;10378853;28;96672;-84
2022/12/07 02:44:51;;;;;;;22.00;17.08;;;;;;;11.86;86.32;100239.38;10378044;28;99114;-84
2022/12/07 02:49:59;;;;;;;21.88;16.75;;;;;;;11.85;86.77;100240.31;10378450;28;96714;-84
2022/12/07 02:55:04;;;;;;;27.45;19.85;;;;;;;11.74;86.64;100236.44;10378692;28;96541;-84
2022/12/07 03:00:15;;;;;;;;;;;;;;;11.79;86.13;100240.56;10377400;28;97395;-84
2022/12/07 03:05:51;;;;;;;24.92;15.20;;;;;;;11.77;85.88;100231.88;10379514;28;96613;-84
2022/12/07 03:11:00;;;;;;;15.30;12.10;;;;;;;11.84;86.61;100221.94;10378575;28;96701;-84
2022/12/07 03:16:15;;;;;;;21.45;14.93;;;;;;;11.82;85.70;100227.25;10377505;28;96768;-84
2022/12/07 03:21:24;;;;;;;17.52;13.80;;;;;;;11.78;85.85;100228.34;10336917;28;96824;-84
2022/12/07 03:26:36;;;;;;;14.60;11.85;;;;;;;11.96;86.25;100230.13;10336335;28;97432;-84
2022/12/07 03:31:47;;;;;;;14.30;11.77;;;;;;;11.93;85.81;100218.84;10335870;28;96673;-84
2022/12/07 03:36:58;;;;;;;15.52;11.93;;;;;;;11.88;86.09;100216.44;10343539;28;96634;-84
2022/12/07 03:42:06;;;;;;;15.27;12.52;;;;;;;11.89;86.11;100219.94;10342579;28;96583;-84
2022/12/07 03:47:27;;;;;;;14.90;11.38;;;;;;;11.98;86.29;100219.50;10342538;28;96958;-84
2022/12/07 03:52:39;;;;;;;15.38;11.35;;;;;;;12.02;86.11;100211.41;10342849;28;96715;-84
2022/12/07 03:57:50;;;;;;;13.90;11.10;;;;;;;12.03;85.96;100205.19;10342694;28;96608;-84
2022/12/07 04:02:58;;;;;;;19.23;13.85;;;;;;;11.96;85.96;100210.81;10342257;28;96681;-84
2022/12/07 04:08:02;;;;;;;25.80;17.40;;;;;;;11.77;85.93;100205.50;10342576;28;96657;-84
2022/12/07 04:13:15;;;;;;;20.98;14.07;;;;;;;11.71;85.41;100197.03;10342487;28;96880;-84
2022/12/07 04:18:21;;;;;;;19.40;14.23;;;;;;;11.65;85.19;100199.97;10341501;28;97404;-84
2022/12/07 04:23:26;;;;;;;26.58;16.48;;;;;;;11.51;85.20;100197.06;10341997;28;96745;-84
2022/12/07 04:28:35;;;;;;;22.02;15.82;;;;;;;11.39;86.43;100194.03;10342582;28;96790;-84
2022/12/07 04:33:42;;;;;;;23.13;15.63;;;;;;;11.33;86.24;100196.97;10341508;28;96658;-84
2022/12/07 04:38:47;;;;;;;21.55;15.25;;;;;;;11.26;86.37;100192.88;10341082;28;96697;-84
2022/12/07 04:43:52;;;;;;;24.80;17.08;;;;;;;11.16;85.73;100185.44;10340613;28;97285;-84
2022/12/07 04:48:58;;;;;;;36.97;20.95;;;;;;;10.98;86.55;100192.31;10341025;28;96795;-84
2022/12/07 04:54:05;;;;;;;28.15;18.23;;;;;;;10.90;86.85;100199.69;10340878;28;96691;-83
2022/12/07 04:59:11;;;;;;;24.13;16.88;;;;;;;10.90;86.91;100189.16;10341128;28;96682;-84
2022/12/07 05:04:17;;;;;;;;;;;;;;;10.83;87.97;100192.97;10340944;28;97067;-84
2022/12/07 05:09:22;;;;;;;29.23;17.85;;;;;;;10.78;87.65;100191.44;10340852;28;96803;-83
2022/12/07 05:14:27;;;;;;;;;;;;;;;10.62;88.28;100178.06;10340245;28;96778;-84
2022/12/07 05:19:35;;;;;;;24.07;16.30;;;;;;;10.63;87.94;100182.38;10341790;28;96652;-84
2022/12/07 05:24:43;;;;;;;27.23;16.92;;;;;;;10.63;87.64;100169.22;10344306;28;96856;-83
2022/12/07 05:29:51;;;;;;;28.92;17.20;;;;;;;10.55;88.38;100167.81;10339017;28;96764;-84
2022/12/07 05:34:57;;;;;;;26.27;16.25;;;;;;;10.54;87.94;100161.69;10339484;28;96748;-84
2022/12/07 05:40:02;;;;;;;23.67;15.88;;;;;;;10.52;88.43;100155.66;10339078;28;96685;-84
2022/12/07 05:45:07;;;;;;;27.33;17.20;;;;;;;10.48;87.73;100153.22;10339141;28;96758;-84
2022/12/07 05:50:15;;;;;;;23.45;15.50;;;;;;;10.51;87.50;100155.72;10339457;28;96698;-84
2022/12/07 05:55:23;;;;;;;20.48;14.05;;;;;;;10.46;87.70;100149.78;10339020;28;96613;-84
2022/12/07 06:00:27;;;;;;;20.60;12.32;;;;;;;10.58;87.81;100149.28;10338359;28;96752;-84
2022/12/07 06:05:34;;;;;;;17.95;12.05;;;;;;;10.51;87.52;100161.84;10338260;28;96901;-84
2022/12/07 06:10:45;;;;;;;14.30;9.52;;;;;;;10.42;87.11;100153.47;10339567;28;96705;-84
2022/12/07 06:15:49;;;;;;;16.08;10.40;;;;;;;10.37;87.93;100150.19;10338708;28;96932;-84
2022/12/07 06:20:55;;;;;;;14.53;9.60;;;;;;;10.35;87.08;100150.22;10337791;28;96747;-83
2022/12/07 06:25:59;;;;;;;;;;;;;;;10.19;87.62;100144.72;10338602;28;96798;-84
2022/12/07 06:31:04;;;;;;;16.27;11.00;;;;;;;10.16;87.36;100151.88;10338353;28;96797;-84
2022/12/07 06:36:20;;;;;;;18.27;12.00;;;;;;;10.06;87.48;100145.25;10337525;28;96862;-84
2022/12/07 06:41:30;;;;;;;18.15;12.27;;;;;;;10.02;87.31;100130.53;10348489;28;96765;-84
2022/12/07 06:46:35;;;;;;;16.70;11.32;;;;;;;10.13;87.77;100128.31;10378688;28;96723;-84
2022/12/07 06:51:42;;;;;;;;;;;;;;;10.22;88.00;100123.56;10378992;28;98185;-84
2022/12/07 06:56:46;;;;;;;9.50;7.70;;;;;;;10.45;87.38;100116.50;10379256;28;96672;-84
2022/12/07 07:01:50;;;;;;;12.23;9.55;;;;;;;10.64;86.99;100120.97;10379167;28;97157;-84
2022/12/07 07:06:57;;;;;;;15.83;11.43;;;;;;;10.83;86.27;100116.63;10379302;28;96802;-84
2022/12/07 07:12:05;;;;;;;14.40;10.85;;;;;;;10.73;86.92;100122.34;10385807;28;96996;-84
2022/12/07 07:17:12;;;;;;;16.27;12.05;;;;;;;10.77;86.76;100116.00;10383703;28;97010;-83
2022/12/07 07:22:19;;;;;;;21.25;13.82;;;;;;;10.87;87.36;100112.09;10384949;28;96915;-84
2022/12/07 07:27:24;;;;;;;18.25;13.65;;;;;;;10.93;86.82;100110.03;10385323;28;96646;-83
2022/12/07 07:32:28;;;;;;;20.85;15.18;;;;;;;11.01;86.84;100112.31;10372919;28;96772;-84
2022/12/07 07:37:41;;;;;;;17.00;13.82;;;;;;;11.05;86.57;100103.38;10343369;28;96606;-84
2022/12/07 07:42:47;;;;;;;13.05;10.05;;;;;;;10.80;86.36;100108.00;10343213;28;96597;-84
2022/12/07 07:47:56;;;;;;;12.82;9.93;;;;;;;10.47;87.00;100101.53;10343332;28;96680;-84
2022/12/07 07:53:04;;;;;;;12.13;9.52;;;;;;;10.72;86.62;100103.06;10345163;28;96676;-84
2022/12/07 07:58:10;;;;;;;18.08;12.23;;;;;;;10.87;86.51;100112.91;10342972;28;96826;-84
2022/12/07 08:03:17;;;;;;;16.08;11.23;;;;;;;11.04;86.60;100105.13;10342453;28;96680;-84
2022/12/07 08:08:27;;;;;;;11.65;9.13;;;;;;;10.98;86.96;100101.94;10342355;28;96712;-84
2022/12/07 08:13:32;;;;;;;18.05;11.65;;;;;;;11.01;85.81;100113.19;10342125;28;97010;-84
2022/12/07 08:18:37;;;;;;;11.48;8.35;;;;;;;10.76;86.27;100114.31;10341297;28;96711;-84
2022/12/07 08:23:47;;;;;;;12.75;9.45;;;;;;;10.79;86.26;100116.81;10342513;28;97098;-84
2022/12/07 08:28:55;;;;;;;12.35;9.73;;;;;;;10.96;85.61;100132.72;10383343;28;96749;-84
2022/12/07 08:34:02;;;;;;;13.93;11.52;;;;;;;11.16;86.32;100120.44;10383269;28;96777;-84
2022/12/07 08:39:08;;;;;;;14.75;10.77;;;;;;;10.87;85.75;100120.00;10381975;28;97444;-84
2022/12/07 08:44:32;;;;;;;17.52;13.00;;;;;;;10.68;86.69;100129.59;10341318;28;96917;-83
2022/12/07 08:49:40;;;;;;;16.33;11.77;;;;;;;10.75;86.84;100123.16;10341170;28;96609;-84
2022/12/07 08:54:49;;;;;;;16.77;10.43;;;;;;;11.19;85.65;100125.59;10340916;28;96525;-83
2022/12/07 08:59:56;;;;;;;12.35;9.10;;;;;;;11.57;85.74;100113.31;10339892;28;97682;-84
2022/12/07 09:05:09;;;;;;;12.10;8.35;;;;;;;11.19;85.09;100116.81;10340934;28;96631;-83
2022/12/07 09:10:22;;;;;;;9.77;7.68;;;;;;;11.14;85.47;100116.19;10341144;28;96752;-83
2022/12/07 09:15:26;;;;;;;19.60;13.45;;;;;;;11.23;84.92;100110.50;10340640;28;96850;-84
2022/12/07 09:20:32;;;;;;;32.80;24.33;;;;;;;11.52;85.33;100111.81;10339815;28;96657;-84
2022/12/07 09:25:40;;;;;;;34.92;26.38;;;;;;;11.67;84.48;100113.75;10339771;28;96676;-84
2022/12/07 09:30:47;;;;;;;33.60;24.10;;;;;;;11.93;84.04;100103.69;10338244;28;96946;-84
2022/12/07 09:36:15;;;;;;;28.45;23.52;;;;;;;12.13;84.02;100110.66;10339839;28;96692;-84
2022/12/07 09:41:26;;;;;;;15.38;12.32;;;;;;;12.33;84.29;100095.56;10339328;28;96655;-84
2022/12/07 09:46:36;;;;;;;15.15;12.25;;;;;;;12.69;83.65;100094.72;10339580;28;96827;-84
2022/12/07 09:51:48;;;;;;;11.73;9.25;;;;;;;12.80;83.55;100101.16;10338564;28;96800;-84
2022/12/07 09:56:55;;;;;;;29.77;21.63;;;;;;;12.82;83.37;100098.41;10339489;28;96710;-83
2022/12/07 10:02:26;;;;;;;34.45;25.38;;;;;;;12.99;83.36;100087.84;10338870;28;96700;-84
2022/12/07 10:07:38;;;;;;;29.73;23.37;;;;;;;13.15;83.09;100088.75;10338442;28;96782;-84
2022/12/07 10:13:03;;;;;;;41.33;30.95;;;;;;;13.22;82.15;100077.78;10338430;28;96633;-83
2022/12/07 10:18:21;;;;;;;38.60;29.65;;;;;;;13.46;82.12;100065.91;10338186;28;96606;-84
2022/12/07 10:23:25;;;;;;;32.92;25.02;;;;;;;13.55;82.03;100073.31;10338603;28;98225;-83
2022/12/07 10:28:37;;;;;;;24.30;17.70;;;;;;;13.73;81.56;100058.22;10338024;28;96969;-84
2022/12/07 10:33:51;;;;;;;11.43;8.70;;;;;;;13.84;80.90;100047.91;10337148;28;96857;-84
2022/12/07 10:39:03;;;;;;;13.30;9.02;;;;;;;13.84;81.18;100044.41;10345027;28;96802;-84
2022/12/07 10:44:23;;;;;;;10.13;8.50;;;;;;;14.07;80.45;100038.72;10377942;28;96773;-84
2022/12/07 10:50:07;;;;;;;9.55;7.82;;;;;;;14.11;79.79;100029.63;10379763;28;96848;-84
2022/12/07 10:55:25;;;;;;;7.07;5.15;;;;;;;14.22;78.81;100011.34;10377998;28;96867;-84
2022/12/07 11:00:42;;;;;;;5.13;4.32;;;;;;;14.19;77.75;100016.84;10379565;28;97100;-84
2022/12/07 11:05:58;;;;;;;4.18;3.70;;;;;;;14.42;76.82;100003.94;10379111;28;96863;-84
2022/12/07 11:11:08;;;;;;;4.93;3.90;;;;;;;14.57;76.91;99999.56;10378832;28;96756;-84
2022/12/07 11:16:31;;;;;;;5.45;4.15;;;;;;;14.59;75.66;100001.16;10377788;28;96672;-84
2022/12/07 11:21:46;;;;;;;4.07;3.38;;;;;;;14.66;75.07;99991.06;10379414;28;96798;-83
2022/12/07 11:27:11;;;;;;;3.95;3.05;;;;;;;14.72;75.04;99973.00;10377825;28;96852;-84
2022/12/07 11:32:42;;;;;;;3.65;2.80;;;;;;;14.77;74.15;99964.75;10351625;28;96741;-84
2022/12/07 11:37:54;;;;;;;4.07;3.08;;;;;;;14.87;73.27;99951.81;10335928;28;96581;-84
2022/12/07 11:43:01;;;;;;;4.18;3.10;;;;;;;14.91;72.44;99940.91;10336529;28;96803;-83
2022/12/07 11:48:16;;;;;;;5.05;2.90;;;;;;;14.99;72.32;99933.31;10337342;28;96697;-84
2022/12/07 11:53:27;;;;;;;3.38;2.80;;;;;;;15.16;71.77;99925.19;10336482;28;96631;-84
2022/12/07 11:58:47;;;;;;;4.60;3.28;;;;;;;15.22;71.66;99918.63;10342868;28;96811;-84
2022/12/07 12:04:04;;;;;;;2.97;2.50;;;;;;;15.23;71.30;99909.75;10343664;28;96741;-84
2022/12/07 12:09:16;;;;;;;4.45;3.40;;;;;;;15.35;70.64;99890.44;10343542;28;96772;-84
2022/12/07 12:14:53;;;;;;;3.85;2.60;;;;;;;15.49;70.31;99893.03;10343606;28;96924;-84
2022/12/07 12:20:15;;;;;;;3.35;2.85;;;;;;;15.38;70.39;99880.47;10342833;28;96580;-84
2022/12/07 12:25:24;;;;;;;4.07;3.00;;;;;;;15.43;70.37;99869.56;10342228;28;96735;-84
2022/12/07 12:30:34;;;;;;;4.70;2.92;;;;;;;15.46;70.69;99859.59;10340936;28;96705;-84
2022/12/07 12:35:45;;;;;;;4.88;2.63;;;;;;;15.50;70.78;99852.31;10342289;28;97153;-84
2022/12/07 12:40:50;;;;;;;5.05;3.13;;;;;;;15.59;69.99;99841.94;10372306;28;96711;-84
2022/12/07 12:46:39;;;;;;;3.72;3.17;;;;;;;15.66;70.26;99837.09;10382867;28;96705;-84
2022/12/07 12:51:56;;;;;;;4.72;3.03;;;;;;;15.63;69.82;99811.59;10351557;28;96750;-84
2022/12/07 12:57:08;;;;;;;3.78;2.78;;;;;;;15.58;69.83;99800.44;10381652;28;97137;-85
2022/12/07 13:02:26;;;;;;;5.30;2.60;;;;;;;15.56;69.98;99778.47;10382562;28;96742;-84
2022/12/07 13:08:06;;;;;;;4.50;2.30;;;;;;;15.73;69.24;99794.13;10383058;28;97250;-84
2022/12/07 13:13:33;;;;;;;4.00;2.53;;;;;;;16.45;67.46;99787.34;10381496;28;96693;-84
2022/12/07 13:18:39;;;;;;;3.03;2.40;;;;;;;17.64;64.49;99776.66;10381977;28;96816;-84
2022/12/07 13:24:02;;;;;;;2.70;2.20;;;;;;;18.62;61.08;99766.28;10380350;28;96725;-85
2022/12/07 13:29:15;;;;;;;2.20;1.80;;;;;;;18.75;60.33;99745.66;10372973;28;96775;-85
2022/12/07 13:34:35;;;;;;;2.05;1.80;;;;;;;18.29;60.44;99749.41;10340756;28;96647;-84
2022/12/07 13:39:49;;;;;;;2.72;2.10;;;;;;;17.67;61.86;99741.88;10340297;28;96817;-85
2022/12/07 13:44:58;;;;;;;4.85;3.42;;;;;;;17.38;62.67;99740.50;10339786;28;96624;-85
2022/12/07 13:50:03;;;;;;;4.38;3.05;;;;;;;16.90;64.15;99725.56;10340482;28;96653;-84
2022/12/07 13:55:16;;;;;;;3.13;2.38;;;;;;;16.61;64.71;99725.06;10339321;28;96834;-84
2022/12/07 14:00:24;;;;;;;3.13;2.50;;;;;;;16.65;64.43;99707.09;10340827;28;96841;-85
2022/12/07 14:05:35;;;;;;;2.85;2.03;;;;;;;16.56;64.31;99695.31;10339934;28;96661;-85
2022/12/07 14:10:56;;;;;;;2.50;2.30;;;;;;;16.53;64.77;99690.22;10339481;28;96648;-84
2022/12/07 14:16:05;;;;;;;3.35;2.53;;;;;;;16.39;65.23;99678.88;10338248;28;96776;-84
2022/12/07 14:21:17;;;;;;;2.10;1.80;;;;;;;16.54;64.81;99667.16;10338188;28;97959;-84
2022/12/07 14:26:27;;;;;;;3.10;2.40;;;;;;;16.36;64.64;99668.47;10348075;28;96791;-84
2022/12/07 14:31:32;;;;;;;3.67;2.17;;;;;;;16.36;65.43;99661.34;10379745;28;96839;-84
2022/12/07 14:36:37;;;;;;;2.78;2.15;;;;;;;16.25;65.30;99644.50;10375302;28;96985;-84
2022/12/07 14:41:57;;;;;;;4.33;2.50;;;;;;;16.47;65.08;99642.00;10337708;28;96672;-84
2022/12/07 14:47:04;;;;;;;2.70;2.20;;;;;;;16.51;64.86;99638.19;10337936;28;96683;-84
2022/12/07 14:52:34;;;;;;;2.67;2.20;;;;;;;17.00;63.66;99629.09;10337906;28;96711;-84
2022/12/07 14:58:02;;;;;;;3.33;2.67;;;;;;;17.85;60.64;99631.31;10338148;28;96769;-85
2022/12/07 15:03:10;;;;;;;4.40;2.70;;;;;;;18.66;58.94;99628.28;10337240;28;96831;-84
2022/12/07 15:08:16;;;;;;;4.35;2.60;;;;;;;18.11;60.33;99622.09;10336245;28;96674;-84
2022/12/07 15:18:49;;;;;;;3.92;2.80;;;;;;;17.47;61.24;99614.84;10337200;28;96945;-84
2022/12/07 15:24:14;;;;;;;4.38;3.03;;;;;;;17.82;60.58;99617.38;10336579;28;96737;-84
2022/12/07 15:29:25;;;;;;;4.03;2.83;;;;;;;18.01;58.98;99602.50;10338235;28;96595;-84
2022/12/07 15:34:31;;;;;;;4.68;3.38;;;;;;;18.04;59.10;99601.38;10344140;28;96622;-84
2022/12/07 15:39:49;;;;;;;3.67;3.00;;;;;;;18.32;57.83;99602.66;10344051;28;96844;-84
2022/12/07 15:45:07;;;;;;;3.95;3.05;;;;;;;17.77;59.53;99591.16;10345114;28;96730;-85
2022/12/07 15:50:16;;;;;;;4.43;3.13;;;;;;;17.28;60.63;99581.75;10343277;28;96793;-84
2022/12/07 15:55:24;;;;;;;4.10;3.10;;;;;;;17.08;61.53;99571.84;10343363;28;97789;-84
2022/12/07 16:00:32;;;;;;;4.53;3.45;;;;;;;16.83;61.91;99556.91;10342049;28;96736;-84
2022/12/07 16:05:39;;;;;;;5.13;3.55;;;;;;;16.58;62.69;99562.41;10343537;28;96574;-84
2022/12/07 16:10:47;;;;;;;6.03;4.25;;;;;;;16.50;62.46;99556.78;10342782;28;97020;-84
2022/12/07 16:15:54;;;;;;;5.97;4.53;;;;;;;16.32;63.76;99558.13;10342471;28;96769;-84
2022/12/07 16:21:02;;;;;;;6.28;4.13;;;;;;;16.14;64.55;99560.34;10343319;28;96929;-84
2022/12/07 16:26:08;;;;;;;5.32;3.35;;;;;;;16.08;64.62;99554.63;10342441;28;96706;-84
2022/12/07 16:31:17;;;;;;;4.10;2.97;;;;;;;15.94;64.69;99545.03;10341976;28;96761;-84
2022/12/07 16:36:25;;;;;;;5.47;3.10;;;;;;;15.83;65.03;99544.94;10343614;28;96699;-84
2022/12/07 16:41:50;;;;;;;4.28;3.20;;;;;;;15.74;65.17;99541.16;10341346;28;96617;-84
2022/12/07 16:46:58;;;;;;;4.30;3.20;;;;;;;15.75;65.24;99534.88;10342142;28;96743;-84
2022/12/07 16:52:03;;;;;;;6.13;3.70;;;;;;;15.61;65.81;99516.44;10340680;28;96646;-83
2022/12/07 16:57:24;;;;;;;4.03;2.92;;;;;;;15.60;65.52;99514.78;10341291;28;96878;-83
2022/12/07 17:02:34;;;;;;;4.05;3.10;;;;;;;15.57;65.90;99522.94;10341327;28;96711;-84
2022/12/07 17:07:42;;;;;;;4.53;3.15;;;;;;;15.53;65.60;99518.81;10341251;28;96638;-83
2022/12/07 17:12:50;;;;;;;3.92;3.20;;;;;;;15.47;65.99;99516.63;10341581;28;96616;-83
2022/12/07 17:18:01;;;;;;;4.95;3.30;;;;;;;15.47;66.64;99518.41;10340514;28;96742;-84
2022/12/07 17:23:10;;;;;;;4.97;3.33;;;;;;;15.41;66.52;99510.88;10340468;28;96578;-83
2022/12/07 17:28:16;;;;;;;4.57;3.05;;;;;;;15.40;66.58;99502.09;10343882;28;97167;-83
2022/12/07 17:33:23;;;;;;;4.47;3.25;;;;;;;15.39;66.45;99508.34;10339833;28;96515;-83
2022/12/07 17:38:32;;;;;;;4.60;3.20;;;;;;;15.34;66.53;99493.72;10339755;28;96626;-84
2022/12/07 17:43:40;;;;;;;5.38;2.97;;;;;;;15.35;66.36;99488.31;10339743;28;96969;-84
2022/12/07 17:48:48;;;;;;;4.40;3.37;;;;;;;15.37;66.15;99483.72;10340196;28;96823;-84
2022/12/07 17:53:53;;;;;;;3.28;2.70;;;;;;;15.39;65.64;99483.66;10338832;28;96632;-83
2022/12/07 17:58:57;;;;;;;3.70;2.25;;;;;;;15.33;64.75;99484.94;10339264;28;96689;-83
2022/12/07 18:04:02;;;;;;;3.20;2.53;;;;;;;15.33;64.57;99470.81;10339670;28;96722;-84
2022/12/07 18:09:08;;;;;;;3.95;2.35;;;;;;;15.32;63.45;99464.66;10339188;28;96661;-83
2022/12/07 18:14:13;;;;;;;4.35;2.60;;;;;;;15.21;63.71;99461.06;10339209;28;97014;-83
2022/12/07 18:19:21;;;;;;;2.90;2.00;;;;;;;15.22;63.53;99452.13;10340165;28;96692;-83
2022/12/07 18:24:26;;;;;;;2.45;1.77;;;;;;;15.15;63.57;99435.84;10338271;28;96758;-84
2022/12/07 18:29:39;;;;;;;2.72;1.90;;;;;;;15.13;62.75;99437.75;10338206;28;96669;-84
2022/12/07 18:34:47;;;;;;;3.17;1.92;;;;;;;15.17;61.87;99433.06;10338264;28;96833;-84
2022/12/07 18:39:54;;;;;;;2.17;1.70;;;;;;;15.17;61.79;99417.16;10338244;28;96559;-84
2022/12/07 18:45:00;;;;;;;2.30;1.70;;;;;;;15.17;62.19;99410.06;10338474;28;96743;-83
2022/12/07 18:50:10;;;;;;;3.80;2.25;;;;;;;15.08;62.61;99407.25;10338097;28;96693;-83
2022/12/07 18:55:17;;;;;;;2.35;2.08;;;;;;;14.88;65.08;99405.16;10338414;28;96681;-84
2022/12/07 19:00:26;;;;;;;3.33;2.20;;;;;;;14.76;65.93;99422.75;10337729;28;97041;-83
2022/12/07 19:05:34;;;;;;;3.10;2.00;;;;;;;14.67;66.52;99411.00;10341793;28;96726;-84
2022/12/07 19:10:39;;;;;;;5.18;2.03;;;;;;;14.50;67.61;99400.72;10346105;28;96605;-85
2022/12/07 19:15:43;;;;;;;2.40;1.80;;;;;;;14.31;69.18;99386.22;10345064;28;97106;-84
2022/12/07 19:20:51;;;;;;;3.07;2.17;;;;;;;14.18;69.53;99380.91;10345043;28;96738;-84
2022/12/07 19:25:56;;;;;;;3.95;2.45;;;;;;;14.15;69.97;99402.28;10343987;28;97541;-84
2022/12/07 19:31:01;;;;;;;2.70;1.90;;;;;;;14.14;69.58;99391.81;10343616;28;96540;-83
2022/12/07 19:36:09;;;;;;;2.97;2.20;;;;;;;14.09;69.81;99380.69;10343877;28;96764;-84
2022/12/07 19:46:42;;;;;;;3.22;2.17;;;;;;;14.01;70.25;99370.59;10344676;28;96748;-84
2022/12/07 19:51:54;;;;;;;2.38;1.55;;;;;;;13.86;71.68;99358.41;10343486;28;96649;-84
2022/12/07 19:56:59;;;;;;;3.00;1.70;;;;;;;13.78;72.14;99352.75;10343072;28;96661;-83
2022/12/07 20:02:05;;;;;;;3.42;2.45;;;;;;;13.80;71.83;99371.16;10344638;28;96653;-84
2022/12/07 20:07:18;;;;;;;2.75;1.90;;;;;;;13.87;71.16;99372.44;10342871;28;96836;-85
2022/12/07 20:17:53;;;;;;;3.00;2.13;;;;;;;14.07;69.01;99375.50;10340950;28;96732;-84
2022/12/07 20:23:03;;;;;;;2.95;2.20;;;;;;;14.14;68.96;99375.94;10342728;28;96847;-84
2022/12/07 20:28:06;;;;;;;2.95;2.05;;;;;;;14.08;68.53;99366.63;10359283;28;96730;-84
2022/12/07 20:33:11;;;;;;;3.25;1.98;;;;;;;14.09;68.53;99344.47;10382617;28;96684;-85
2022/12/07 20:38:17;;;;;;;3.03;2.20;;;;;;;14.08;68.71;99339.31;10341636;28;96698;-84
2022/12/07 20:43:21;;;;;;;2.88;1.77;;;;;;;14.13;68.18;99331.91;10342190;28;96982;-83
2022/12/07 20:48:27;;;;;;;2.20;1.80;;;;;;;14.21;67.42;99329.59;10341506;28;96739;-84
2022/12/07 20:53:37;;;;;;;3.47;2.00;;;;;;;14.23;67.52;99323.22;10342877;28;96988;-84
2022/12/07 20:58:43;;;;;;;2.40;1.70;;;;;;;14.26;67.48;99327.47;10341448;28;96657;-84
2022/12/07 21:03:48;;;;;;;2.90;1.93;;;;;;;14.24;67.55;99329.38;10341252;28;96647;-84
2022/12/07 21:08:59;;;;;;;2.70;1.75;;;;;;;14.27;67.57;99321.22;10340949;28;96778;-84
2022/12/07 21:14:04;;;;;;;2.40;1.67;;;;;;;14.22;68.00;99300.38;10341235;28;96764;-84
2022/12/07 21:19:09;;;;;;;2.22;1.60;;;;;;;14.06;70.19;99288.28;10340788;28;96689;-85
2022/12/07 21:24:17;;;;;;;2.63;1.73;;;;;;;13.83;71.99;99291.66;10341222;28;96662;-84
2022/12/07 21:29:24;;;;;;;2.50;1.60;;;;;;;13.78;72.42;99260.22;10340039;28;96915;-84
2022/12/07 21:34:46;;;;;;;2.17;1.80;;;;;;;13.78;72.31;99239.06;10340357;28;96777;-84
2022/12/07 21:39:53;;;;;;;2.35;1.60;;;;;;;13.80;72.00;99231.88;10340143;28;96638;-84
2022/12/07 21:44:58;;;;;;;2.45;1.80;;;;;;;13.76;72.85;99237.50;10341077;28;96791;-84
2022/12/07 21:50:05;;;;;;;2.88;1.52;;;;;;;13.80;72.26;99216.00;10339683;28;96764;-84
2022/12/07 21:55:21;;;;;;;1.77;1.40;;;;;;;13.79;72.28;99205.53;10339786;28;96578;-84
2022/12/07 22:00:26;;;;;;;2.55;1.50;;;;;;;13.84;72.06;99206.94;10338724;28;97662;-84
2022/12/07 22:05:33;;;;;;;2.35;1.40;;;;;;;13.86;71.98;99207.66;10339180;28;97251;-84
2022/12/07 22:10:39;;;;;;;2.55;1.23;;;;;;;13.90;71.69;99206.47;10339131;28;96748;-84
2022/12/07 22:15:44;;;;;;;1.40;1.23;;;;;;;13.87;72.20;99217.28;10339929;28;96742;-84
2022/12/07 22:20:49;;;;;;;1.75;1.35;;;;;;;13.89;72.16;99196.00;10338488;28;96587;-84
2022/12/07 22:26:06;;;;;;;1.88;1.23;;;;;;;13.90;72.19;99197.72;10338560;28;96469;-84
2022/12/07 22:31:12;;;;;;;2.85;1.45;;;;;;;13.84;72.92;99188.41;10337749;28;96828;-85
2022/12/07 22:36:21;;;;;;;1.85;1.50;;;;;;;13.80;73.09;99217.81;10340270;28;96886;-85
2022/12/07 22:41:32;;;;;;;1.77;1.35;;;;;;;13.75;73.45;99196.13;10337725;28;96682;-84
2022/12/07 22:46:41;;;;;;;2.80;1.70;;;;;;;13.67;74.02;99199.31;10338186;28;96664;-85
2022/12/07 22:51:51;;;;;;;1.85;1.30;;;;;;;13.62;74.50;99189.03;10338064;28;96717;-85
2022/12/07 22:56:59;;;;;;;2.13;1.30;;;;;;;13.50;75.69;99184.59;10338208;28;96851;-85
2022/12/07 23:02:13;;;;;;;1.80;1.27;;;;;;;13.35;76.87;99175.06;10337565;28;96684;-85
2022/12/07 23:07:24;;;;;;;2.45;1.85;;;;;;;13.23;78.00;99152.13;10338239;28;96784;-85
2022/12/07 23:18:00;;;;;;;2.88;1.55;;;;;;;13.10;79.50;99150.44;10337432;28;96716;-86
2022/12/07 23:23:05;;;;;;;2.13;1.60;;;;;;;13.03;79.72;99147.34;10337147;28;97358;-85
2022/12/07 23:28:10;;;;;;;1.50;1.13;;;;;;;13.14;79.43;99165.09;10378553;28;99142;-85
2022/12/07 23:33:20;;;;;;;1.75;1.30;;;;;;;13.15;78.99;99188.78;10377890;28;96921;-85
2022/12/07 23:38:32;;;;;;;2.33;1.50;;;;;;;13.12;79.68;99177.59;10378422;28;96543;-86
2022/12/07 23:43:39;;;;;;;2.15;1.45;;;;;;;13.03;80.00;99136.78;10347744;28;96694;-86
2022/12/07 23:48:50;;;;;;;2.78;1.40;;;;;;;12.97;81.12;99121.34;10337136;28;96692;-86
2022/12/07 23:53:55;;;;;;;4.05;1.30;;;;;;;12.89;81.59;99094.63;10342792;28;96554;-85
2022/12/07 23:59:11;;;;;;;2.63;1.20;;;;;;;12.87;81.92;99096.50;10343498;28;96747;-86
